createdAt,value
2023-03-12T00:01:19.845Z,-0.52
2023-03-12T00:03:48.372Z,-0.54
2023-03-12T00:06:16.705Z,-0.54
2023-03-12T00:08:46.540Z,-0.55
2023-03-12T00:11:17.032Z,-0.55
2023-03-12T00:13:45.172Z,-0.54
2023-03-12T00:16:15.115Z,-0.54
2023-03-12T00:18:45.446Z,-0.55
2023-03-12T00:21:14.214Z,-0.55
2023-03-12T00:23:42.641Z,-0.55
2023-03-12T00:26:14.780Z,-0.52
2023-03-12T00:28:43.754Z,-0.51
2023-03-12T00:31:16.356Z,-0.51
2023-03-12T00:33:44.561Z,-0.52
2023-03-12T00:36:14.230Z,-0.45
2023-03-12T00:38:42.560Z,-0.48
2023-03-12T00:41:11.321Z,-0.44
2023-03-12T00:43:40.841Z,-0.40
2023-03-12T00:46:09.009Z,-0.41
2023-03-12T00:48:37.406Z,-0.40
2023-03-12T00:51:06.350Z,-0.41
2023-03-12T00:53:34.518Z,-0.38
2023-03-12T00:56:02.951Z,-0.40
2023-03-12T00:58:34.051Z,-0.35
2023-03-12T01:01:03.689Z,-0.41
2023-03-12T01:03:32.832Z,-0.41
2023-03-12T01:06:01.330Z,-0.41
2023-03-12T01:08:30.055Z,-0.40
2023-03-12T01:10:58.442Z,-0.40
2023-03-12T01:13:27.819Z,-0.41
2023-03-12T01:15:57.286Z,-0.40
2023-03-12T01:18:26.727Z,-0.40
2023-03-12T01:20:55.220Z,-0.42
2023-03-12T01:23:23.714Z,-0.42
2023-03-12T01:25:55.664Z,-0.48
2023-03-12T01:28:24.784Z,-0.54
2023-03-12T01:30:53.274Z,-0.57
2023-03-12T01:33:23.166Z,-0.60
2023-03-12T01:35:55.584Z,-0.58
2023-03-12T01:38:25.151Z,-0.55
2023-03-12T01:40:55.276Z,-0.54
2023-03-12T01:43:27.291Z,-0.50
2023-03-12T01:46:27.830Z,-0.45
2023-03-12T01:49:00.292Z,-0.35
2023-03-12T01:51:35.032Z,-0.30
2023-03-12T01:54:07.339Z,-0.27
2023-03-12T01:56:38.738Z,-0.27
2023-03-12T01:59:12.189Z,-0.23
2023-03-12T02:01:41.133Z,-0.23
2023-03-12T02:04:09.390Z,-0.20
2023-03-12T02:06:44.194Z,-0.14
2023-03-12T02:09:13.493Z,-0.13
2023-03-12T02:11:41.816Z,-0.07
2023-03-12T02:14:10.996Z,-0.03
2023-03-12T02:16:42.014Z,0.01
2023-03-12T02:19:17.661Z,0.01
2023-03-12T02:21:47.524Z,0.03
2023-03-12T02:24:21.899Z,0.06
2023-03-12T02:26:52.131Z,0.07
2023-03-12T02:29:20.624Z,0.11
2023-03-12T02:31:52.262Z,0.14
2023-03-12T02:34:20.392Z,0.14
2023-03-12T02:36:50.556Z,0.15
2023-03-12T02:39:19.671Z,0.15
2023-03-12T02:41:53.618Z,0.18
2023-03-12T02:44:23.451Z,0.19
2023-03-12T02:46:54.211Z,0.21
2023-03-12T02:49:24.257Z,0.19
2023-03-12T02:51:53.000Z,0.19
2023-03-12T02:54:21.902Z,0.21
2023-03-12T02:56:52.169Z,0.24
2023-03-12T02:59:26.391Z,0.22
2023-03-12T03:01:56.262Z,0.24
2023-03-12T03:04:25.040Z,0.21
2023-03-12T03:06:54.400Z,0.22
2023-03-12T03:09:23.466Z,0.24
2023-03-12T03:11:53.019Z,0.22
2023-03-12T03:14:21.334Z,0.24
2023-03-12T03:16:49.559Z,0.22
2023-03-12T03:19:17.874Z,0.22
2023-03-12T03:21:46.663Z,0.24
2023-03-12T03:24:16.875Z,0.24
2023-03-12T03:26:46.300Z,0.19
2023-03-12T03:29:20.467Z,0.14
2023-03-12T03:31:48.575Z,0.08
2023-03-12T03:34:19.109Z,0.00
2023-03-12T03:36:47.216Z,-0.11
2023-03-12T03:39:15.580Z,-0.21
2023-03-12T03:41:44.147Z,-0.30
2023-03-12T03:44:12.292Z,-0.38
2023-03-12T03:46:43.186Z,-0.46
2023-03-12T03:49:11.482Z,-0.46
2023-03-12T03:51:42.046Z,-0.42
2023-03-12T03:54:10.503Z,-0.37
2023-03-12T03:56:39.096Z,-0.34
2023-03-12T03:59:08.196Z,-0.30
2023-03-12T04:01:36.944Z,-0.27
2023-03-12T04:04:07.026Z,-0.30
2023-03-12T04:06:35.700Z,-0.33
2023-03-12T04:09:03.967Z,-0.37
2023-03-12T04:11:32.240Z,-0.40
2023-03-12T04:14:01.430Z,-0.42
2023-03-12T04:16:30.781Z,-0.50
2023-03-12T04:18:58.769Z,-0.52
2023-03-12T04:21:28.599Z,-0.61
2023-03-12T04:23:56.775Z,-0.65
2023-03-12T04:26:27.220Z,-0.75
2023-03-12T04:28:55.573Z,-0.82
2023-03-12T04:31:25.356Z,-0.91
2023-03-12T04:33:54.856Z,-0.96
2023-03-12T04:36:25.021Z,-1.06
2023-03-12T04:38:55.442Z,-1.12
2023-03-12T04:41:23.651Z,-1.20
2023-03-12T04:43:52.707Z,-1.27
2023-03-12T04:46:22.064Z,-1.33
2023-03-12T04:48:50.184Z,-1.39
2023-03-12T04:51:18.588Z,-1.46
2023-03-12T04:53:46.764Z,-1.51
2023-03-12T04:56:16.369Z,-1.58
2023-03-12T04:58:44.839Z,-1.65
2023-03-12T05:01:22.648Z,-1.65
2023-03-12T05:03:51.104Z,-1.67
2023-03-12T05:06:19.869Z,-1.72
2023-03-12T05:08:48.251Z,-1.79
2023-03-12T05:11:20.527Z,-1.86
2023-03-12T05:13:48.952Z,-1.85
2023-03-12T05:16:19.307Z,-1.82
2023-03-12T05:18:47.693Z,-1.78
2023-03-12T05:21:18.317Z,-1.78
2023-03-12T05:23:46.937Z,-1.78
2023-03-12T05:26:20.814Z,-1.82
2023-03-12T05:28:49.719Z,-1.81
2023-03-12T05:31:18.424Z,-1.82
2023-03-12T05:33:47.245Z,-1.86
2023-03-12T05:36:16.026Z,-1.88
2023-03-12T05:38:44.341Z,-1.86
2023-03-12T05:41:21.428Z,-1.86
2023-03-12T05:43:51.064Z,-1.75
2023-03-12T05:46:19.381Z,-1.67
2023-03-12T05:48:47.607Z,-1.50
2023-03-12T05:51:16.085Z,-1.37
2023-03-12T05:53:44.885Z,-1.19
2023-03-12T05:56:14.846Z,-0.99
2023-03-12T05:58:45.011Z,-0.76
2023-03-12T06:01:14.816Z,-0.60
2023-03-12T06:03:43.514Z,-0.41
2023-03-12T06:06:12.070Z,-0.21
2023-03-12T06:08:40.714Z,-0.02
2023-03-12T06:11:09.104Z,0.19
2023-03-12T06:13:37.680Z,0.46
2023-03-12T06:16:10.369Z,0.83
2023-03-12T06:18:38.646Z,1.14
2023-03-12T06:21:11.602Z,1.40
2023-03-12T06:23:41.582Z,1.78
2023-03-12T06:26:10.014Z,2.05
2023-03-12T06:28:38.507Z,2.36
2023-03-12T06:31:09.413Z,2.58
2023-03-12T06:33:39.081Z,2.78
2023-03-12T06:36:09.739Z,3.16
2023-03-12T06:38:39.029Z,3.49
2023-03-12T06:41:09.100Z,3.63
2023-03-12T06:43:38.799Z,3.56
2023-03-12T06:46:10.792Z,3.31
2023-03-12T06:48:41.527Z,3.18
2023-03-12T06:51:10.911Z,3.36
2023-03-12T06:53:42.615Z,3.59
2023-03-12T06:56:11.363Z,4.02
2023-03-12T06:58:39.525Z,4.40
2023-03-12T07:01:09.669Z,4.47
2023-03-12T07:03:37.823Z,4.42
2023-03-12T07:06:06.911Z,4.59
2023-03-12T07:08:35.005Z,4.85
2023-03-12T07:11:03.816Z,5.19
2023-03-12T07:18:30.201Z,5.82
2023-03-12T07:20:58.225Z,6.13
2023-03-12T07:23:26.901Z,6.18
2023-03-12T07:25:55.519Z,6.38
2023-03-12T07:28:23.998Z,6.71
2023-03-12T07:30:52.656Z,6.99
2023-03-12T07:33:22.781Z,7.15
2023-03-12T07:35:52.763Z,7.07
2023-03-12T07:38:24.662Z,6.82
2023-03-12T07:40:53.001Z,6.48
2023-03-12T07:43:22.003Z,6.08
2023-03-12T07:45:53.077Z,5.80
2023-03-12T07:48:21.416Z,5.57
2023-03-12T07:50:49.721Z,5.55
2023-03-12T07:53:20.609Z,5.63
2023-03-12T07:55:48.913Z,5.98
2023-03-12T07:58:18.752Z,6.36
2023-03-12T08:00:47.782Z,6.63
2023-03-12T08:03:17.142Z,6.66
2023-03-12T08:05:47.826Z,6.80
2023-03-12T08:08:17.326Z,7.01
2023-03-12T08:10:47.444Z,6.89
2023-03-12T08:13:17.132Z,7.10
2023-03-12T08:15:45.262Z,7.38
2023-03-12T08:18:13.310Z,7.75
2023-03-12T08:20:41.350Z,8.02
2023-03-12T08:23:09.547Z,8.24
2023-03-12T08:25:38.424Z,8.26
2023-03-12T08:28:07.927Z,8.19
2023-03-12T08:30:35.992Z,8.24
2023-03-12T08:33:04.750Z,8.37
2023-03-12T08:35:33.062Z,8.51
2023-03-12T08:38:01.410Z,8.81
2023-03-12T08:40:29.569Z,9.18
2023-03-12T08:42:57.623Z,9.31
2023-03-12T08:45:28.677Z,9.43
2023-03-12T08:47:56.866Z,9.23
2023-03-12T08:50:26.459Z,9.10
2023-03-12T08:52:54.466Z,8.96
2023-03-12T08:55:23.282Z,9.02
2023-03-12T08:57:51.654Z,8.88
2023-03-12T09:00:20.613Z,8.90
2023-03-12T09:02:52.326Z,8.67
2023-03-12T09:05:21.777Z,8.33
2023-03-12T09:07:50.586Z,7.94
2023-03-12T09:10:19.224Z,7.40
2023-03-12T09:12:47.482Z,7.21
2023-03-12T09:15:15.730Z,7.38
2023-03-12T09:17:44.161Z,7.62
2023-03-12T09:20:15.157Z,8.14
2023-03-12T09:22:45.056Z,8.62
2023-03-12T09:25:14.839Z,8.99
2023-03-12T09:27:46.392Z,9.09
2023-03-12T09:30:18.910Z,8.98
2023-03-12T09:32:47.146Z,8.73
2023-03-12T09:35:17.415Z,8.67
2023-03-12T09:37:49.464Z,8.31
2023-03-12T09:40:19.132Z,8.33
2023-03-12T09:42:50.058Z,8.58
2023-03-12T09:45:22.224Z,8.42
2023-03-12T09:47:52.239Z,8.10
2023-03-12T09:50:26.853Z,7.90
2023-03-12T09:53:00.639Z,8.14
2023-03-12T09:55:30.243Z,8.44
2023-03-12T09:57:59.493Z,8.55
2023-03-12T10:00:31.436Z,8.48
2023-03-12T10:03:26.531Z,8.27
2023-03-12T10:06:04.845Z,8.09
2023-03-12T10:08:40.137Z,8.09
2023-03-12T10:11:19.595Z,7.89
2023-03-12T10:13:57.772Z,7.72
2023-03-12T10:16:40.513Z,7.97
2023-03-12T10:19:22.251Z,7.92
2023-03-12T10:21:59.994Z,8.03
2023-03-12T10:24:37.132Z,8.07
2023-03-12T10:27:12.574Z,7.76
2023-03-12T10:29:44.781Z,7.52
2023-03-12T10:32:17.625Z,7.55
2023-03-12T10:34:47.899Z,7.81
2023-03-12T10:37:20.209Z,8.03
2023-03-12T10:39:48.555Z,8.00
2023-03-12T10:42:21.925Z,8.00
2023-03-12T10:44:52.797Z,7.92
2023-03-12T10:47:35.618Z,7.79
2023-03-12T10:50:19.709Z,7.66
2023-03-12T10:52:54.324Z,7.90
2023-03-12T10:55:24.967Z,8.20
2023-03-12T10:57:53.798Z,8.33
2023-03-12T11:00:24.186Z,8.13
2023-03-12T11:03:03.450Z,7.82
2023-03-12T11:05:33.420Z,7.66
2023-03-12T11:08:04.594Z,7.51
2023-03-12T11:10:45.888Z,7.44
2023-03-12T11:13:27.781Z,7.47
2023-03-12T11:15:57.829Z,7.32
2023-03-12T11:18:29.572Z,7.30
2023-03-12T11:20:58.626Z,7.17
2023-03-12T11:23:32.045Z,6.96
2023-03-12T11:26:03.000Z,6.92
2023-03-12T11:28:38.264Z,7.04
2023-03-12T11:31:10.602Z,7.27
2023-03-12T11:33:38.923Z,7.15
2023-03-12T11:36:19.037Z,7.03
2023-03-12T11:38:52.035Z,6.99
2023-03-12T11:41:30.218Z,6.96
2023-03-12T11:44:08.939Z,7.04
2023-03-12T11:46:46.453Z,7.03
2023-03-12T11:49:35.866Z,6.92
2023-03-12T11:52:07.106Z,6.71
2023-03-12T11:55:07.689Z,6.41
2023-03-12T11:57:42.196Z,6.44
2023-03-12T12:00:16.271Z,6.48
2023-03-12T12:02:57.334Z,6.44
2023-03-12T12:05:33.035Z,6.48
2023-03-12T12:08:14.041Z,6.42
2023-03-12T12:10:47.465Z,6.53
2023-03-12T12:13:22.538Z,6.69
2023-03-12T12:15:57.192Z,6.62
2023-03-12T12:18:37.365Z,6.72
2023-03-12T12:21:16.541Z,6.75
2023-03-12T12:23:52.728Z,6.65
2023-03-12T12:26:25.513Z,6.61
2023-03-12T12:29:06.806Z,6.69
2023-03-12T12:31:40.567Z,6.68
2023-03-12T12:34:44.433Z,6.55
2023-03-12T12:37:23.490Z,6.44
2023-03-12T12:39:58.367Z,6.38
2023-03-12T12:42:30.316Z,6.31
2023-03-12T12:45:00.625Z,6.29
2023-03-12T12:47:36.254Z,6.36
2023-03-12T12:50:05.600Z,6.32
2023-03-12T12:52:34.429Z,6.36
2023-03-12T12:55:08.455Z,6.45
2023-03-12T12:57:40.490Z,6.48
2023-03-12T13:00:36.110Z,6.38
2023-03-12T13:03:04.751Z,6.35
2023-03-12T13:05:47.140Z,6.25
2023-03-12T13:08:37.704Z,6.15
2023-03-12T13:11:18.381Z,6.04
2023-03-12T13:13:51.196Z,5.84
2023-03-12T13:16:33.618Z,5.67
2023-03-12T13:19:02.854Z,5.71
2023-03-12T13:21:37.739Z,5.77
2023-03-12T13:24:17.163Z,5.83
2023-03-12T13:27:00.204Z,5.66
2023-03-12T13:29:43.164Z,5.57
2023-03-12T13:32:55.302Z,5.40
2023-03-12T13:35:51.097Z,5.31
2023-03-12T13:38:35.717Z,5.22
2023-03-12T13:41:05.966Z,5.16
2023-03-12T13:43:56.248Z,5.19
2023-03-12T13:46:40.115Z,5.21
2023-03-12T13:49:14.422Z,5.16
2023-03-12T13:51:55.652Z,5.18
2023-03-12T13:54:32.347Z,5.07
2023-03-12T13:57:03.811Z,5.07
2023-03-12T13:59:32.566Z,4.99
2023-03-12T14:02:05.625Z,4.99
2023-03-12T14:04:39.285Z,4.98
2023-03-12T14:07:35.366Z,4.95
2023-03-12T14:10:11.533Z,4.94
2023-03-12T14:12:45.927Z,4.94
2023-03-12T14:15:20.357Z,4.88
2023-03-12T14:17:57.222Z,4.78
2023-03-12T14:20:27.325Z,4.71
2023-03-12T14:23:01.177Z,4.68
2023-03-12T14:25:38.350Z,4.63
2023-03-12T14:28:13.723Z,4.57
2023-03-12T14:30:46.476Z,4.57
2023-03-12T14:33:15.225Z,4.57
2023-03-12T14:35:47.013Z,4.59
2023-03-12T14:38:19.584Z,4.63
2023-03-12T14:40:53.234Z,4.68
2023-03-12T14:43:23.795Z,4.68
2023-03-12T14:45:57.340Z,4.67
2023-03-12T14:48:29.727Z,4.66
2023-03-12T14:50:58.380Z,4.61
2023-03-12T14:53:30.367Z,4.59
2023-03-12T14:56:06.929Z,4.52
2023-03-12T14:58:36.972Z,4.50
2023-03-12T15:01:07.086Z,4.49
2023-03-12T15:03:44.368Z,4.49
2023-03-12T15:06:17.159Z,4.54
2023-03-12T15:08:47.173Z,4.56
2023-03-12T15:11:22.081Z,4.57
2023-03-12T15:13:51.679Z,4.53
2023-03-12T15:16:20.564Z,4.45
2023-03-12T15:18:50.482Z,4.42
2023-03-12T15:21:18.957Z,4.40
2023-03-12T15:23:49.052Z,4.38
2023-03-12T15:26:33.234Z,4.29
2023-03-12T15:29:03.876Z,4.25
2023-03-12T15:31:42.534Z,4.28
2023-03-12T15:34:13.944Z,4.33
2023-03-12T15:36:48.032Z,4.36
2023-03-12T15:39:26.953Z,4.38
2023-03-12T15:41:56.443Z,4.36
2023-03-12T15:44:26.034Z,4.36
2023-03-12T15:46:56.535Z,4.40
2023-03-12T15:49:27.042Z,4.38
2023-03-12T15:52:00.946Z,4.35
2023-03-12T15:54:31.199Z,4.29
2023-03-12T15:57:21.038Z,4.16
2023-03-12T16:00:09.475Z,4.08
2023-03-12T16:02:39.432Z,3.98
2023-03-12T16:05:08.242Z,3.92
2023-03-12T16:07:38.658Z,3.88
2023-03-12T16:10:11.853Z,3.81
2023-03-12T16:12:40.234Z,3.78
2023-03-12T16:15:13.567Z,3.71
2023-03-12T16:17:43.187Z,3.66
2023-03-12T16:20:14.939Z,3.64
2023-03-12T16:22:45.024Z,3.57
2023-03-12T16:25:14.701Z,3.54
2023-03-12T16:27:47.484Z,3.50
2023-03-12T16:30:18.695Z,3.44
2023-03-12T16:32:47.529Z,3.44
2023-03-12T16:35:35.278Z,3.40
2023-03-12T16:38:04.259Z,3.37
2023-03-12T16:40:36.152Z,3.39
2023-03-12T16:43:09.586Z,3.43
2023-03-12T16:45:38.425Z,3.39
2023-03-12T16:48:07.309Z,3.39
2023-03-12T16:50:35.464Z,3.36
2023-03-12T16:53:04.449Z,3.34
2023-03-12T16:55:46.038Z,3.29
2023-03-12T16:58:15.191Z,3.26
2023-03-12T17:00:45.855Z,3.20
2023-03-12T17:03:20.452Z,3.16
2023-03-12T17:05:48.676Z,3.15
2023-03-12T17:08:16.841Z,3.12
2023-03-12T17:10:46.698Z,3.08
2023-03-12T17:13:22.291Z,3.08
2023-03-12T17:15:51.020Z,3.06
2023-03-12T17:18:19.932Z,3.05
2023-03-12T17:20:51.139Z,3.03
2023-03-12T17:23:19.450Z,3.01
2023-03-12T17:25:49.345Z,2.99
2023-03-12T17:28:17.456Z,2.99
2023-03-12T17:30:47.377Z,2.95
2023-03-12T17:33:16.960Z,2.92
2023-03-12T17:35:46.128Z,2.92
2023-03-12T17:38:14.642Z,2.95
2023-03-12T17:40:44.966Z,2.93
2023-03-12T17:43:14.399Z,2.91
2023-03-12T17:45:43.327Z,2.91
2023-03-12T17:48:13.017Z,2.93
2023-03-12T17:50:41.210Z,2.89
2023-03-12T17:53:09.898Z,2.88
2023-03-12T17:55:38.438Z,2.89
2023-03-12T17:58:07.192Z,2.89
2023-03-12T18:00:36.911Z,2.87
2023-03-12T18:03:05.588Z,2.88
2023-03-12T18:05:34.251Z,2.85
2023-03-12T18:08:03.756Z,2.88
2023-03-12T18:10:33.059Z,2.89
2023-03-12T18:13:01.462Z,2.88
2023-03-12T18:15:33.354Z,2.87
2023-03-12T18:18:04.141Z,2.91
2023-03-12T18:20:39.025Z,2.92
2023-03-12T18:23:08.402Z,2.91
2023-03-12T18:25:37.978Z,2.88
2023-03-12T18:28:06.544Z,2.89
2023-03-12T18:30:36.482Z,2.89
2023-03-12T18:33:06.616Z,2.88
2023-03-12T18:35:35.577Z,2.89
2023-03-12T18:38:03.870Z,2.91
2023-03-12T18:40:33.815Z,2.91
2023-03-12T18:43:03.064Z,2.91
2023-03-12T18:45:31.991Z,2.92
2023-03-12T18:48:00.903Z,2.92
2023-03-12T18:50:30.398Z,2.95
2023-03-12T18:52:58.535Z,2.93
2023-03-12T18:55:27.130Z,2.93
2023-03-12T18:57:55.206Z,2.98
2023-03-12T19:00:26.004Z,2.98
2023-03-12T19:02:54.078Z,2.95
2023-03-12T19:05:22.489Z,2.99
2023-03-12T19:07:52.216Z,2.98
2023-03-12T19:10:20.343Z,3.03
2023-03-12T19:12:53.145Z,3.05
2023-03-12T19:15:25.173Z,3.06
2023-03-12T19:17:54.108Z,3.08
2023-03-12T19:20:23.065Z,3.10
2023-03-12T19:22:52.905Z,3.15
2023-03-12T19:25:21.783Z,3.13
2023-03-12T19:27:51.888Z,3.19
2023-03-12T19:30:20.080Z,3.22
2023-03-12T19:32:48.350Z,3.24
2023-03-12T19:35:16.928Z,3.24
2023-03-12T19:37:45.197Z,3.27
2023-03-12T19:40:15.453Z,3.31
2023-03-12T19:42:43.912Z,3.33
2023-03-12T19:45:13.944Z,3.36
2023-03-12T19:47:42.430Z,3.37
2023-03-12T19:50:12.398Z,3.41
2023-03-12T19:52:42.820Z,3.46
2023-03-12T19:55:12.515Z,3.51
2023-03-12T19:57:42.217Z,3.54
2023-03-12T20:00:12.319Z,3.59
2023-03-12T20:02:41.046Z,3.61
2023-03-12T20:05:11.290Z,3.66
2023-03-12T20:07:39.862Z,3.71
2023-03-12T20:10:11.459Z,3.74
2023-03-12T20:12:40.193Z,3.80
2023-03-12T20:15:11.866Z,3.81
2023-03-12T20:17:40.303Z,3.82
2023-03-12T20:20:09.896Z,3.89
2023-03-12T20:22:40.025Z,3.92
2023-03-12T20:25:10.752Z,3.97
2023-03-12T20:27:39.146Z,4.02
2023-03-12T20:30:08.616Z,4.06
2023-03-12T20:32:38.336Z,4.10
2023-03-12T20:35:07.787Z,4.12
2023-03-12T20:37:36.923Z,4.13
2023-03-12T20:40:06.328Z,4.15
2023-03-12T20:42:36.195Z,4.13
2023-03-12T20:45:07.174Z,4.20
2023-03-12T20:47:36.753Z,4.26
2023-03-12T20:50:07.105Z,4.32
2023-03-12T20:52:35.428Z,4.33
2023-03-12T20:55:03.815Z,4.39
2023-03-12T20:57:32.093Z,4.42
2023-03-12T21:00:02.610Z,4.43
2023-03-12T21:02:31.280Z,4.49
2023-03-12T21:04:59.854Z,4.53
2023-03-12T21:07:29.267Z,4.54
2023-03-12T21:09:57.812Z,4.60
2023-03-12T21:12:27.485Z,4.64
2023-03-12T21:14:55.658Z,4.68
2023-03-12T21:17:23.891Z,4.73
2023-03-12T21:19:54.475Z,4.76
2023-03-12T21:22:23.321Z,4.80
2023-03-12T21:24:53.042Z,4.87
2023-03-12T21:27:21.529Z,4.89
2023-03-12T21:29:49.772Z,4.88
2023-03-12T21:32:18.751Z,4.94
2023-03-12T21:34:47.404Z,4.92
2023-03-12T21:37:18.436Z,4.98
2023-03-12T21:39:46.857Z,4.99
2023-03-12T21:42:17.382Z,5.01
2023-03-12T21:44:45.563Z,5.04
2023-03-12T21:47:13.658Z,5.03
2023-03-12T21:49:42.412Z,5.01
2023-03-12T21:52:10.719Z,5.03
2023-03-12T21:54:40.409Z,5.04
2023-03-12T21:57:08.753Z,5.08
2023-03-12T21:59:38.712Z,5.04
2023-03-12T22:02:09.523Z,5.05
2023-03-12T22:04:38.084Z,5.04
2023-03-12T22:07:08.051Z,5.03
2023-03-12T22:09:39.330Z,5.07
2023-03-12T22:12:08.802Z,5.08
2023-03-12T22:14:38.211Z,5.09
2023-03-12T22:17:06.396Z,5.09
2023-03-12T22:19:34.656Z,5.14
2023-03-12T22:22:05.100Z,5.15
2023-03-12T22:24:33.549Z,5.16
2023-03-12T22:27:03.539Z,5.18
2023-03-12T22:29:35.758Z,5.15
2023-03-12T22:32:05.840Z,5.19
2023-03-12T22:34:35.290Z,5.22
2023-03-12T22:37:08.145Z,5.24
2023-03-12T22:39:38.104Z,5.26
2023-03-12T22:42:06.728Z,5.31
2023-03-12T22:44:34.772Z,5.31
2023-03-12T22:47:02.998Z,5.35
2023-03-12T22:49:39.377Z,5.36
2023-03-12T22:52:07.997Z,5.39
2023-03-12T22:54:36.136Z,5.40
2023-03-12T22:57:04.744Z,5.42
2023-03-12T22:59:33.531Z,5.43
2023-03-12T23:02:02.133Z,5.45
2023-03-12T23:04:32.123Z,5.45
2023-03-12T23:07:14.252Z,5.46
2023-03-12T23:09:44.852Z,5.46
2023-03-12T23:12:13.108Z,5.49
2023-03-12T23:14:41.248Z,5.52
2023-03-12T23:17:11.088Z,5.52
2023-03-12T23:19:39.172Z,5.52
2023-03-12T23:22:11.192Z,5.56
2023-03-12T23:24:39.664Z,5.57
2023-03-12T23:27:07.993Z,5.57
2023-03-12T23:29:36.663Z,5.57
2023-03-12T23:32:05.425Z,5.65
2023-03-12T23:34:35.088Z,5.67
2023-03-12T23:37:03.676Z,5.71
2023-03-12T23:39:42.100Z,5.74
2023-03-12T23:42:16.533Z,5.76
2023-03-12T23:44:44.542Z,5.80
2023-03-12T23:47:12.545Z,5.84
2023-03-12T23:49:40.936Z,5.87
2023-03-12T23:52:09.209Z,5.89
2023-03-12T23:54:38.938Z,5.91
2023-03-12T23:57:07.092Z,5.90
2023-03-12T23:59:35.467Z,5.95
